createdAt,value
2018-11-06T00:00:56.435Z,100304.38
2018-11-06T00:03:30.304Z,100307.44
2018-11-06T00:05:59.407Z,100300.21
2018-11-06T00:08:28.110Z,100299.86
2018-11-06T00:10:56.925Z,100292.56
2018-11-06T00:13:25.707Z,100300.64
2018-11-06T00:15:55.709Z,100288.60
2018-11-06T00:18:26.629Z,100291.17
2018-11-06T00:20:55.523Z,100290.83
2018-11-06T00:23:24.682Z,100291.23
2018-11-06T00:25:53.710Z,100269.80
2018-11-06T00:28:22.765Z,100272.77
2018-11-06T00:30:51.545Z,100277.91
2018-11-06T00:33:20.150Z,100271.91
2018-11-06T00:35:49.360Z,100267.60
2018-11-06T00:38:18.114Z,100259.08
2018-11-06T00:40:46.896Z,100269.31
2018-11-06T00:43:15.648Z,100264.64
2018-11-06T00:45:44.299Z,100268.89
2018-11-06T00:48:13.002Z,100278.79
2018-11-06T00:50:41.735Z,100285.20
2018-11-06T00:53:10.480Z,100281.36
2018-11-06T00:55:39.297Z,100291.63
2018-11-06T00:58:08.031Z,100292.91
2018-11-06T01:00:37.146Z,100289.48
2018-11-06T01:03:05.793Z,100288.20
2018-11-06T01:05:34.374Z,100287.77
2018-11-06T01:08:03.107Z,100280.13
2018-11-06T01:10:31.932Z,100288.73
2018-11-06T01:13:00.632Z,100289.19
2018-11-06T01:15:29.389Z,100285.77
2018-11-06T01:17:58.102Z,100279.80
2018-11-06T01:20:26.764Z,100280.60
2018-11-06T01:22:55.560Z,100285.27
2018-11-06T01:25:25.583Z,100275.73
2018-11-06T01:27:54.276Z,100276.47
2018-11-06T01:30:22.878Z,100284.08
2018-11-06T01:32:51.560Z,100279.69
2018-11-06T01:35:20.360Z,100277.94
2018-11-06T01:37:49.274Z,100276.19
2018-11-06T01:40:18.996Z,100275.30
2018-11-06T01:42:48.503Z,100271.91
2018-11-06T01:45:17.955Z,100271.05
2018-11-06T01:47:46.560Z,100275.38
2018-11-06T01:50:17.211Z,100277.12
2018-11-06T01:52:46.851Z,100270.80
2018-11-06T01:55:15.654Z,100274.66
2018-11-06T01:57:44.348Z,100280.61
2018-11-06T02:00:18.306Z,100280.68
2018-11-06T02:02:47.230Z,100277.26
2018-11-06T02:05:17.242Z,100275.18
2018-11-06T02:07:47.118Z,100273.53
2018-11-06T02:10:16.355Z,100268.00
2018-11-06T02:12:46.062Z,100268.48
2018-11-06T02:15:15.511Z,100277.13
2018-11-06T02:17:44.966Z,100284.41
2018-11-06T02:20:14.424Z,100286.97
2018-11-06T02:22:44.049Z,100287.77
2018-11-06T02:25:13.373Z,100274.91
2018-11-06T02:27:42.074Z,100268.55
2018-11-06T02:30:12.887Z,100272.42
2018-11-06T02:32:42.392Z,100278.45
2018-11-06T02:35:11.138Z,100277.59
2018-11-06T02:37:39.968Z,100276.73
2018-11-06T02:40:10.493Z,100279.27
2018-11-06T02:42:39.304Z,100283.98
2018-11-06T02:45:08.549Z,100278.84
2018-11-06T02:47:37.129Z,100284.44
2018-11-06T02:50:06.273Z,100284.00
2018-11-06T02:52:34.928Z,100286.14
2018-11-06T02:55:04.012Z,100282.75
2018-11-06T02:57:32.692Z,100279.33
2018-11-06T03:00:02.391Z,100271.22
2018-11-06T03:02:31.114Z,100271.22
2018-11-06T03:04:59.812Z,100264.80
2018-11-06T03:07:28.446Z,100273.36
2018-11-06T03:09:57.073Z,100267.83
2018-11-06T03:12:25.656Z,100273.84
2018-11-06T03:14:54.371Z,100278.12
2018-11-06T03:17:23.145Z,100279.40
2018-11-06T03:19:51.883Z,100275.97
2018-11-06T03:22:20.468Z,100269.56
2018-11-06T03:24:49.201Z,100267.47
2018-11-06T03:27:17.999Z,100268.30
2018-11-06T03:29:46.682Z,100265.73
2018-11-06T03:32:15.273Z,100273.87
2018-11-06T03:34:44.126Z,100270.84
2018-11-06T03:37:12.909Z,100273.89
2018-11-06T03:39:41.560Z,100266.20
2018-11-06T03:42:10.114Z,100273.48
2018-11-06T03:44:38.836Z,100274.36
2018-11-06T03:47:07.534Z,100278.19
2018-11-06T03:49:36.272Z,100284.20
2018-11-06T03:52:04.995Z,100297.02
2018-11-06T03:54:33.663Z,100295.73
2018-11-06T03:57:02.596Z,100299.59
2018-11-06T03:59:31.213Z,100299.20
2018-11-06T04:02:00.084Z,100301.36
2018-11-06T04:04:28.870Z,100308.63
2018-11-06T04:06:57.496Z,100304.80
2018-11-06T04:09:26.227Z,100310.80
2018-11-06T04:11:54.735Z,100302.64
2018-11-06T04:14:23.413Z,100309.05
2018-11-06T04:16:52.061Z,100321.01
2018-11-06T04:19:20.691Z,100313.34
2018-11-06T04:21:49.481Z,100324.05
2018-11-06T04:24:18.159Z,100325.72
2018-11-06T04:26:46.851Z,100312.87
2018-11-06T04:29:15.616Z,100322.63
2018-11-06T04:31:44.372Z,100328.13
2018-11-06T04:34:13.676Z,100325.58
2018-11-06T04:36:42.474Z,100325.58
2018-11-06T04:39:11.807Z,100324.71
2018-11-06T04:41:40.511Z,100324.28
2018-11-06T04:44:09.211Z,100325.59
2018-11-06T04:46:37.874Z,100324.36
2018-11-06T04:49:07.072Z,100317.48
2018-11-06T04:51:35.843Z,100323.90
2018-11-06T04:54:04.636Z,100326.48
2018-11-06T04:56:33.446Z,100324.75
2018-11-06T04:59:02.371Z,100310.66
2018-11-06T05:01:31.057Z,100307.70
2018-11-06T05:03:59.884Z,100307.27
2018-11-06T05:06:28.483Z,100305.16
2018-11-06T05:08:57.154Z,100307.28
2018-11-06T05:11:25.942Z,100305.98
2018-11-06T05:13:54.796Z,100314.09
2018-11-06T05:16:23.508Z,100312.83
2018-11-06T05:18:52.179Z,100313.68
2018-11-06T05:21:20.773Z,100314.94
2018-11-06T05:23:49.586Z,100317.53
2018-11-06T05:26:18.576Z,100317.11
2018-11-06T05:28:47.973Z,100333.29
2018-11-06T05:31:17.056Z,100329.04
2018-11-06T05:33:45.802Z,100325.99
2018-11-06T05:36:14.479Z,100333.70
2018-11-06T05:38:43.086Z,100335.36
2018-11-06T05:41:11.647Z,100335.79
2018-11-06T05:43:40.359Z,100334.08
2018-11-06T05:46:09.047Z,100337.95
2018-11-06T05:48:37.814Z,100335.79
2018-11-06T05:51:06.730Z,100337.08
2018-11-06T05:53:35.344Z,100342.63
2018-11-06T05:56:05.463Z,100354.16
2018-11-06T05:58:34.214Z,100356.33
2018-11-06T06:01:03.648Z,100350.33
2018-11-06T06:03:32.490Z,100348.67
2018-11-06T06:06:02.040Z,100342.68
2018-11-06T06:08:30.913Z,100342.66
2018-11-06T06:10:59.667Z,100334.56
2018-11-06T06:13:28.378Z,100338.83
2018-11-06T06:15:56.988Z,100346.10
2018-11-06T06:18:25.973Z,100348.21
2018-11-06T06:20:54.678Z,100367.49
2018-11-06T06:23:23.438Z,100368.75
2018-11-06T06:25:52.252Z,100373.45
2018-11-06T06:28:21.264Z,100383.73
2018-11-06T06:30:49.981Z,100373.05
2018-11-06T06:33:18.654Z,100389.69
2018-11-06T06:35:47.314Z,100389.70
2018-11-06T06:38:16.051Z,100391.80
2018-11-06T06:40:44.755Z,100396.06
2018-11-06T06:43:13.699Z,100396.04
2018-11-06T06:45:42.564Z,100392.63
2018-11-06T06:48:11.279Z,100384.48
2018-11-06T06:50:39.934Z,100383.61
2018-11-06T06:53:08.705Z,100386.58
2018-11-06T06:55:37.399Z,100378.45
2018-11-06T06:58:06.064Z,100385.27
2018-11-06T07:00:34.748Z,100384.36
2018-11-06T07:03:04.100Z,100384.80
2018-11-06T07:05:32.685Z,100385.63
2018-11-06T07:08:01.429Z,100386.03
2018-11-06T07:10:30.152Z,100392.87
2018-11-06T07:12:59.168Z,100396.70
2018-11-06T07:15:27.933Z,100399.24
2018-11-06T07:17:56.635Z,100398.84
2018-11-06T07:20:26.172Z,100398.84
2018-11-06T07:22:54.934Z,100403.09
2018-11-06T07:25:23.849Z,100404.38
2018-11-06T07:27:52.692Z,100403.93
2018-11-06T07:30:22.565Z,100405.19
2018-11-06T07:32:51.335Z,100399.16
2018-11-06T07:35:20.564Z,100410.20
2018-11-06T07:37:49.170Z,100409.33
2018-11-06T07:40:19.275Z,100411.41
2018-11-06T07:42:48.167Z,100419.48
2018-11-06T07:45:19.242Z,100418.59
2018-11-06T07:47:47.928Z,100426.27
2018-11-06T07:50:16.572Z,100427.07
2018-11-06T07:52:45.565Z,100425.32
2018-11-06T07:55:17.517Z,100437.68
2018-11-06T07:57:46.189Z,100436.36
2018-11-06T08:00:18.412Z,100424.78
2018-11-06T08:02:47.990Z,100432.08
2018-11-06T08:05:17.124Z,100427.72
2018-11-06T08:07:46.559Z,100432.40
2018-11-06T08:10:15.181Z,100432.79
2018-11-06T08:12:46.170Z,100428.03
2018-11-06T08:15:15.265Z,100422.38
2018-11-06T08:17:44.871Z,100426.67
2018-11-06T08:20:13.622Z,100422.73
2018-11-06T08:22:42.479Z,100424.48
2018-11-06T08:25:12.616Z,100420.13
2018-11-06T08:27:42.138Z,100423.94
2018-11-06T08:30:11.763Z,100432.08
2018-11-06T08:32:40.756Z,100435.47
2018-11-06T08:35:11.721Z,100442.69
2018-11-06T08:37:40.428Z,100449.11
2018-11-06T08:40:10.155Z,100448.60
2018-11-06T08:42:38.852Z,100444.22
2018-11-06T08:45:10.086Z,100446.70
2018-11-06T08:47:38.976Z,100444.03
2018-11-06T08:50:09.325Z,100441.80
2018-11-06T08:52:38.876Z,100445.09
2018-11-06T08:55:09.023Z,100449.71
2018-11-06T08:57:37.775Z,100447.89
2018-11-06T09:00:08.712Z,100453.76
2018-11-06T09:02:37.861Z,100451.98
2018-11-06T09:05:08.154Z,100448.05
2018-11-06T09:07:37.251Z,100452.30
2018-11-06T09:10:06.785Z,100447.95
2018-11-06T09:12:35.483Z,100453.00
2018-11-06T09:15:04.312Z,100447.78
2018-11-06T09:17:32.952Z,100449.45
2018-11-06T09:20:01.770Z,100444.23
2018-11-06T09:22:30.547Z,100443.30
2018-11-06T09:24:59.431Z,100442.77
2018-11-06T09:27:28.171Z,100443.14
2018-11-06T09:29:56.891Z,100445.27
2018-11-06T09:32:25.574Z,100438.36
2018-11-06T09:34:54.382Z,100439.18
2018-11-06T09:37:23.050Z,100439.12
2018-11-06T09:39:51.734Z,100440.30
2018-11-06T09:42:20.524Z,100446.30
2018-11-06T09:44:49.248Z,100445.83
2018-11-06T09:47:17.893Z,100446.61
2018-11-06T09:49:46.641Z,100444.45
2018-11-06T09:52:15.436Z,100443.91
2018-11-06T09:54:44.116Z,100443.41
2018-11-06T09:57:13.341Z,100432.16
2018-11-06T09:59:42.119Z,100433.81
2018-11-06T10:02:10.895Z,100424.34
2018-11-06T10:04:39.560Z,100422.55
2018-11-06T10:07:08.814Z,100422.85
2018-11-06T10:09:37.314Z,100425.37
2018-11-06T10:12:06.284Z,100427.89
2018-11-06T10:14:34.907Z,100436.41
2018-11-06T10:17:04.234Z,100426.02
2018-11-06T10:19:33.109Z,100431.11
2018-11-06T10:22:01.717Z,100424.20
2018-11-06T10:24:30.649Z,100416.83
2018-11-06T10:26:59.412Z,100421.00
2018-11-06T10:29:28.071Z,100418.76
2018-11-06T10:31:56.900Z,100412.60
2018-11-06T10:34:25.720Z,100409.01
2018-11-06T10:36:54.551Z,100407.19
2018-11-06T10:39:23.465Z,100408.47
2018-11-06T10:41:52.237Z,100404.47
2018-11-06T10:44:20.972Z,100403.95
2018-11-06T10:46:49.741Z,100400.05
2018-11-06T10:49:18.492Z,100396.48
2018-11-06T10:51:47.438Z,100396.45
2018-11-06T10:54:16.116Z,100398.89
2018-11-06T10:56:44.906Z,100396.75
2018-11-06T10:59:13.885Z,100396.73
2018-11-06T11:01:47.814Z,100397.08
2018-11-06T11:04:18.829Z,100402.17
2018-11-06T11:06:47.642Z,100406.83
2018-11-06T11:09:16.680Z,100406.32
2018-11-06T11:11:45.330Z,100405.75
2018-11-06T11:14:13.965Z,100403.92
2018-11-06T11:16:42.892Z,100408.91
2018-11-06T11:19:11.900Z,100416.44
2018-11-06T11:21:40.771Z,100407.20
2018-11-06T11:24:09.482Z,100410.88
2018-11-06T11:26:38.295Z,100405.77
2018-11-06T11:29:07.250Z,100404.11
2018-11-06T11:31:36.136Z,100402.01
2018-11-06T11:34:06.028Z,100401.69
2018-11-06T11:36:34.870Z,100395.40
2018-11-06T11:39:03.913Z,100397.78
2018-11-06T11:41:32.691Z,100397.41
2018-11-06T11:44:01.524Z,100392.52
2018-11-06T11:46:30.226Z,100390.16
2018-11-06T11:48:59.180Z,100390.50
2018-11-06T11:51:27.981Z,100384.88
2018-11-06T11:53:57.798Z,100386.67
2018-11-06T11:56:26.753Z,100380.67
2018-11-06T11:58:55.641Z,100385.41
2018-11-06T12:01:24.355Z,100384.38
2018-11-06T12:03:53.975Z,100380.45
2018-11-06T12:06:22.690Z,100376.56
2018-11-06T12:08:51.564Z,100375.94
2018-11-06T12:11:20.511Z,100373.56
2018-11-06T12:13:49.494Z,100370.70
2018-11-06T12:16:18.794Z,100372.11
2018-11-06T12:18:48.115Z,100370.52
2018-11-06T12:21:17.024Z,100375.63
2018-11-06T12:23:45.709Z,100380.61
2018-11-06T12:26:15.212Z,100383.34
2018-11-06T12:28:45.625Z,100385.25
2018-11-06T12:31:20.363Z,100381.80
2018-11-06T12:33:51.207Z,100380.95
2018-11-06T12:36:40.876Z,100379.62
2018-11-06T12:39:23.997Z,100380.55
2018-11-06T12:41:55.553Z,100379.97
2018-11-06T12:44:24.695Z,100378.98
2018-11-06T12:46:57.696Z,100375.80
2018-11-06T12:49:28.081Z,100374.26
2018-11-06T12:51:57.810Z,100370.47
2018-11-06T12:54:26.812Z,100370.91
2018-11-06T12:56:57.598Z,100364.44
2018-11-06T12:59:26.472Z,100367.60
2018-11-06T13:01:55.757Z,100366.95
2018-11-06T13:04:24.853Z,100368.69
2018-11-06T13:06:53.874Z,100362.30
2018-11-06T13:09:22.657Z,100358.95
2018-11-06T13:11:52.128Z,100353.88
2018-11-06T13:14:21.971Z,100349.23
2018-11-06T13:16:58.810Z,100352.30
2018-11-06T13:19:28.662Z,100348.47
2018-11-06T13:21:58.407Z,100347.72
2018-11-06T13:24:30.181Z,100349.90
2018-11-06T13:27:06.793Z,100352.08
2018-11-06T13:29:35.554Z,100345.66
2018-11-06T13:32:05.528Z,100340.58
2018-11-06T13:34:36.325Z,100337.61
2018-11-06T13:37:06.380Z,100338.14
2018-11-06T13:39:35.541Z,100340.36
2018-11-06T13:42:10.139Z,100334.77
2018-11-06T13:44:39.058Z,100333.56
2018-11-06T13:47:07.677Z,100340.08
2018-11-06T13:49:36.497Z,100342.76
2018-11-06T13:52:05.399Z,100339.41
2018-11-06T13:54:34.169Z,100340.39
2018-11-06T13:57:04.299Z,100338.33
2018-11-06T13:59:33.219Z,100338.02
2018-11-06T14:02:01.957Z,100338.55
2018-11-06T14:04:31.563Z,100337.78
2018-11-06T14:07:00.499Z,100335.28
2018-11-06T14:09:29.377Z,100337.61
2018-11-06T14:11:58.289Z,100338.58
2018-11-06T14:14:27.001Z,100341.70
2018-11-06T14:16:55.765Z,100341.79
2018-11-06T14:19:25.416Z,100344.91
2018-11-06T14:21:54.270Z,100351.47
2018-11-06T14:24:23.457Z,100356.25
2018-11-06T14:26:52.499Z,100349.02
2018-11-06T14:29:22.595Z,100344.81
2018-11-06T14:31:51.783Z,100351.75
2018-11-06T14:34:20.656Z,100355.69
2018-11-06T14:36:49.529Z,100349.74
2018-11-06T14:39:18.429Z,100352.83
2018-11-06T14:41:47.150Z,100344.24
2018-11-06T14:44:16.037Z,100341.36
2018-11-06T14:46:44.781Z,100339.23
2018-11-06T14:49:13.589Z,100335.86
2018-11-06T14:51:42.390Z,100337.23
2018-11-06T14:54:11.182Z,100337.26
2018-11-06T14:56:40.245Z,100334.31
2018-11-06T14:59:09.038Z,100334.78
2018-11-06T15:01:37.805Z,100333.98
2018-11-06T15:04:06.535Z,100340.97
2018-11-06T15:06:35.322Z,100336.41
2018-11-06T15:09:05.204Z,100338.16
2018-11-06T15:11:34.214Z,100334.86
2018-11-06T15:14:03.129Z,100326.30
2018-11-06T15:16:32.010Z,100321.64
2018-11-06T15:19:00.698Z,100323.02
2018-11-06T15:21:29.627Z,100318.80
2018-11-06T15:23:58.338Z,100332.25
2018-11-06T15:26:27.321Z,100330.23
2018-11-06T15:28:56.154Z,100329.46
2018-11-06T15:31:25.045Z,100330.36
2018-11-06T15:33:54.219Z,100330.02
2018-11-06T15:36:23.086Z,100330.92
2018-11-06T15:38:51.925Z,100332.27
2018-11-06T15:41:20.717Z,100345.20
2018-11-06T15:43:49.410Z,100342.70
2018-11-06T15:46:18.183Z,100345.80
2018-11-06T15:48:46.970Z,100347.16
2018-11-06T15:51:15.623Z,100342.07
2018-11-06T15:53:44.427Z,100342.97
2018-11-06T15:56:13.291Z,100346.45
2018-11-06T15:58:42.160Z,100343.91
2018-11-06T16:01:18.139Z,100351.28
2018-11-06T16:03:46.885Z,100351.73
2018-11-06T16:06:16.277Z,100353.16
2018-11-06T16:08:45.263Z,100349.73
2018-11-06T16:11:14.092Z,100350.24
2018-11-06T16:13:42.951Z,100348.97
2018-11-06T16:16:11.900Z,100349.46
2018-11-06T16:18:41.303Z,100351.68
2018-11-06T16:21:10.162Z,100356.86
2018-11-06T16:23:38.879Z,100350.89
2018-11-06T16:26:08.412Z,100353.50
2018-11-06T16:28:38.163Z,100358.24
2018-11-06T16:31:07.255Z,100356.56
2018-11-06T16:33:36.096Z,100358.31
2018-11-06T16:36:05.850Z,100363.48
2018-11-06T16:38:34.764Z,100360.89
2018-11-06T16:41:03.681Z,100365.27
2018-11-06T16:43:33.750Z,100360.16
2018-11-06T16:46:02.874Z,100352.43
2018-11-06T16:48:32.867Z,100354.23
2018-11-06T16:51:01.584Z,100351.20
2018-11-06T16:53:30.321Z,100348.28
2018-11-06T16:58:49.292Z,100349.48
2018-11-06T17:01:18.075Z,100348.97
2018-11-06T17:03:48.385Z,100348.05
2018-11-06T17:06:22.375Z,100349.78
2018-11-06T17:08:52.275Z,100356.32
2018-11-06T17:11:21.268Z,100361.98
2018-11-06T17:13:50.863Z,100359.52
2018-11-06T17:16:19.622Z,100366.48
2018-11-06T17:18:48.408Z,100373.02
2018-11-06T17:21:17.287Z,100376.97
2018-11-06T17:23:46.328Z,100370.14
2018-11-06T17:26:15.236Z,100368.92
2018-11-06T17:28:44.113Z,100373.66
2018-11-06T17:31:14.041Z,100375.03
2018-11-06T17:33:43.100Z,100379.82
2018-11-06T17:36:12.116Z,100377.31
2018-11-06T17:38:43.030Z,100374.84
2018-11-06T17:41:12.337Z,100371.41
2018-11-06T17:43:41.390Z,100370.62
2018-11-06T17:46:11.669Z,100375.80
2018-11-06T17:48:41.015Z,100367.69
2018-11-06T17:51:10.222Z,100377.16
2018-11-06T17:53:43.662Z,100378.55
2018-11-06T17:56:12.661Z,100375.22
2018-11-06T17:58:41.413Z,100378.30
2018-11-06T18:01:11.233Z,100379.58
2018-11-06T18:03:40.952Z,100368.83
2018-11-06T18:06:10.479Z,100369.32
2018-11-06T18:08:39.615Z,100368.03
2018-11-06T18:11:08.849Z,100365.45
2018-11-06T18:13:38.460Z,100367.61
2018-11-06T18:16:07.419Z,100362.02
2018-11-06T18:18:37.076Z,100365.47
2018-11-06T18:21:06.208Z,100364.17
2018-11-06T18:23:35.873Z,100372.39
2018-11-06T18:26:05.538Z,100364.30
2018-11-06T18:28:35.019Z,100374.56
2018-11-06T18:31:06.026Z,100369.45
2018-11-06T18:33:35.365Z,100362.59
2018-11-06T18:36:06.346Z,100352.83
2018-11-06T18:38:36.217Z,100358.41
2018-11-06T18:41:06.199Z,100356.69
2018-11-06T18:43:35.620Z,100350.23
2018-11-06T18:46:05.619Z,100355.39
2018-11-06T18:48:34.594Z,100354.12
2018-11-06T18:51:04.705Z,100348.96
2018-11-06T18:53:33.606Z,100357.56
2018-11-06T18:56:03.181Z,100358.05
2018-11-06T18:58:31.851Z,100359.33
2018-11-06T19:01:01.934Z,100357.73
2018-11-06T19:03:31.450Z,100359.52
2018-11-06T19:06:00.646Z,100347.11
2018-11-06T19:08:29.738Z,100348.91
2018-11-06T19:10:58.570Z,100353.61
2018-11-06T19:13:27.556Z,100345.47
2018-11-06T19:15:56.803Z,100341.64
2018-11-06T19:18:27.090Z,100333.60
2018-11-06T19:20:55.827Z,100334.41
2018-11-06T19:23:24.895Z,100339.55
2018-11-06T19:25:53.718Z,100340.05
2018-11-06T19:28:22.390Z,100342.20
2018-11-06T19:33:31.172Z,100340.54
2018-11-06T19:36:00.228Z,100330.78
2018-11-06T19:38:30.329Z,100329.96
2018-11-06T19:40:59.238Z,100329.96
2018-11-06T19:43:28.849Z,100335.98
2018-11-06T19:45:58.215Z,100340.66
2018-11-06T19:48:27.003Z,100336.42
2018-11-06T19:50:56.013Z,100332.22
2018-11-06T19:53:25.086Z,100331.75
2018-11-06T19:55:55.309Z,100330.47
2018-11-06T19:58:24.606Z,100329.23
2018-11-06T20:00:54.247Z,100323.70
2018-11-06T20:03:23.616Z,100324.98
2018-11-06T20:05:52.528Z,100329.22
2018-11-06T20:08:27.831Z,100328.37
2018-11-06T20:10:56.521Z,100333.03
2018-11-06T20:13:26.452Z,100329.17
2018-11-06T20:15:55.323Z,100328.75
2018-11-06T20:18:24.337Z,100326.60
2018-11-06T20:20:53.196Z,100321.06
2018-11-06T20:23:21.931Z,100316.35
2018-11-06T20:25:50.882Z,100318.16
2018-11-06T20:28:20.041Z,100316.47
2018-11-06T20:30:48.726Z,100316.47
2018-11-06T20:33:17.613Z,100323.80
2018-11-06T20:35:47.001Z,100319.08
2018-11-06T20:38:15.840Z,100316.95
2018-11-06T20:40:45.395Z,100314.86
2018-11-06T20:43:14.295Z,100320.91
2018-11-06T20:45:42.849Z,100309.80
2018-11-06T20:48:11.832Z,100309.86
2018-11-06T20:50:40.543Z,100311.15
2018-11-06T20:53:09.359Z,100311.19
2018-11-06T20:55:38.501Z,100308.14
2018-11-06T20:58:07.400Z,100305.61
2018-11-06T21:00:36.164Z,100308.25
2018-11-06T21:03:05.081Z,100315.16
2018-11-06T21:05:33.791Z,100306.20
2018-11-06T21:08:03.681Z,100308.78
2018-11-06T21:10:32.502Z,100306.63
2018-11-06T21:13:01.329Z,100304.97
2018-11-06T21:15:30.100Z,100306.69
2018-11-06T21:17:58.868Z,100308.88
2018-11-06T21:20:28.120Z,100312.74
2018-11-06T21:22:56.993Z,100311.13
2018-11-06T21:25:30.529Z,100311.56
2018-11-06T21:28:02.689Z,100318.47
2018-11-06T21:30:31.581Z,100330.91
2018-11-06T21:33:01.861Z,100330.06
2018-11-06T21:35:30.995Z,100333.95
2018-11-06T21:37:59.814Z,100350.65
2018-11-06T21:40:30.882Z,100357.08
2018-11-06T21:43:03.389Z,100365.18
2018-11-06T21:45:34.994Z,100358.78
2018-11-06T21:48:03.773Z,100354.07
2018-11-06T21:50:32.523Z,100354.97
2018-11-06T21:53:03.093Z,100343.09
2018-11-06T21:55:31.788Z,100341.47
2018-11-06T21:58:00.520Z,100335.08
2018-11-06T22:00:31.804Z,100332.05
2018-11-06T22:03:02.438Z,100324.37
2018-11-06T22:05:31.153Z,100328.22
2018-11-06T22:08:00.229Z,100324.41
2018-11-06T22:10:29.176Z,100320.55
2018-11-06T22:12:58.005Z,100332.55
2018-11-06T22:15:26.742Z,100327.02
2018-11-06T22:17:56.276Z,100326.63
2018-11-06T22:20:25.620Z,100327.53
2018-11-06T22:22:54.436Z,100326.28
2018-11-06T22:25:23.219Z,100326.75
2018-11-06T22:27:51.939Z,100332.33
2018-11-06T22:30:20.568Z,100329.36
2018-11-06T22:32:49.284Z,100329.80
2018-11-06T22:35:19.669Z,100335.40
2018-11-06T22:37:48.406Z,100328.11
2018-11-06T22:40:18.309Z,100329.86
2018-11-06T22:42:48.676Z,100331.58
2018-11-06T22:45:18.194Z,100332.01
2018-11-06T22:47:46.847Z,100332.01
2018-11-06T22:50:16.815Z,100330.73
2018-11-06T22:52:46.272Z,100324.34
2018-11-06T22:55:15.073Z,100324.30
2018-11-06T22:57:44.510Z,100323.48
2018-11-06T23:00:16.210Z,100327.37
2018-11-06T23:02:44.968Z,100324.80
2018-11-06T23:05:14.308Z,100329.55
2018-11-06T23:07:48.324Z,100326.95
2018-11-06T23:10:17.047Z,100334.66
2018-11-06T23:12:46.852Z,100328.69
2018-11-06T23:15:15.570Z,100326.98
2018-11-06T23:17:44.265Z,100326.55
2018-11-06T23:20:13.061Z,100333.44
2018-11-06T23:22:41.793Z,100333.05
2018-11-06T23:25:10.433Z,100336.94
2018-11-06T23:27:39.055Z,100333.94
2018-11-06T23:30:10.288Z,100333.52
2018-11-06T23:32:38.948Z,100331.41
2018-11-06T23:35:08.520Z,100325.87
2018-11-06T23:37:37.714Z,100324.58
2018-11-06T23:40:06.861Z,100314.73
2018-11-06T23:42:35.563Z,100319.05
2018-11-06T23:45:04.908Z,100321.66
2018-11-06T23:47:33.860Z,100316.94
2018-11-06T23:50:03.629Z,100311.84
2018-11-06T23:52:32.287Z,100313.58
2018-11-06T23:55:02.479Z,100323.86
2018-11-06T23:57:31.584Z,100316.61
